sensor_id;sensor_type;location;lat;lon;timestamp;P1;durP1;ratioP1;P2;durP2;ratioP2
10120;SDS011;5100;45.176;5.714;2022-12-18T00:01:21;16.03;;;12.90;;
10120;SDS011;5100;45.176;5.714;2022-12-18T00:03:51;13.97;;;12.43;;
10120;SDS011;5100;45.176;5.714;2022-12-18T00:06:19;14.83;;;12.50;;
10120;SDS011;5100;45.176;5.714;2022-12-18T00:08:45;15.37;;;13.10;;
10120;SDS011;5100;45.176;5.714;2022-12-18T00:11:16;15.27;;;12.93;;
10120;SDS011;5100;45.176;5.714;2022-12-18T00:13:44;14.53;;;13.03;;
10120;SDS011;5100;45.176;5.714;2022-12-18T00:16:11;15.37;;;13.73;;
10120;SDS011;5100;45.176;5.714;2022-12-18T00:18:39;16.20;;;13.97;;
10120;SDS011;5100;45.176;5.714;2022-12-18T00:21:06;14.17;;;12.70;;
10120;SDS011;5100;45.176;5.714;2022-12-18T00:23:34;15.40;;;13.53;;
10120;SDS011;5100;45.176;5.714;2022-12-18T00:26:02;14.97;;;12.80;;
10120;SDS011;5100;45.176;5.714;2022-12-18T00:28:30;15.17;;;13.17;;
10120;SDS011;5100;45.176;5.714;2022-12-18T00:31:00;15.83;;;13.17;;
10120;SDS011;5100;45.176;5.714;2022-12-18T00:33:27;14.53;;;12.53;;
10120;SDS011;5100;45.176;5.714;2022-12-18T00:35:53;14.00;;;12.50;;
10120;SDS011;5100;45.176;5.714;2022-12-18T00:38:19;15.20;;;12.50;;
10120;SDS011;5100;45.176;5.714;2022-12-18T00:40:46;13.27;;;11.87;;
10120;SDS011;5100;45.176;5.714;2022-12-18T00:43:11;14.20;;;12.33;;
10120;SDS011;5100;45.176;5.714;2022-12-18T00:45:37;13.83;;;12.43;;
10120;SDS011;5100;45.176;5.714;2022-12-18T00:48:04;14.37;;;12.23;;
10120;SDS011;5100;45.176;5.714;2022-12-18T00:50:30;13.50;;;12.20;;
10120;SDS011;5100;45.176;5.714;2022-12-18T00:52:59;14.00;;;12.53;;
10120;SDS011;5100;45.176;5.714;2022-12-18T00:55:26;14.83;;;12.30;;
10120;SDS011;5100;45.176;5.714;2022-12-18T00:57:52;14.30;;;12.73;;
10120;SDS011;5100;45.176;5.714;2022-12-18T01:00:18;15.50;;;12.37;;
10120;SDS011;5100;45.176;5.714;2022-12-18T01:02:45;13.67;;;12.27;;
10120;SDS011;5100;45.176;5.714;2022-12-18T01:05:12;15.07;;;12.30;;
10120;SDS011;5100;45.176;5.714;2022-12-18T01:07:39;13.67;;;12.20;;
10120;SDS011;5100;45.176;5.714;2022-12-18T01:10:06;12.17;;;10.93;;
10120;SDS011;5100;45.176;5.714;2022-12-18T01:12:34;13.33;;;11.63;;
10120;SDS011;5100;45.176;5.714;2022-12-18T01:15:01;14.23;;;11.80;;
10120;SDS011;5100;45.176;5.714;2022-12-18T01:17:28;12.60;;;11.30;;
10120;SDS011;5100;45.176;5.714;2022-12-18T01:19:54;11.93;;;10.73;;
10120;SDS011;5100;45.176;5.714;2022-12-18T01:22:20;14.00;;;12.50;;
10120;SDS011;5100;45.176;5.714;2022-12-18T01:24:46;12.73;;;11.43;;
10120;SDS011;5100;45.176;5.714;2022-12-18T01:27:12;12.57;;;11.27;;
10120;SDS011;5100;45.176;5.714;2022-12-18T01:29:38;12.30;;;11.00;;
10120;SDS011;5100;45.176;5.714;2022-12-18T01:32:05;12.70;;;11.40;;
10120;SDS011;5100;45.176;5.714;2022-12-18T01:34:31;13.80;;;11.77;;
10120;SDS011;5100;45.176;5.714;2022-12-18T01:36:57;12.87;;;11.47;;
10120;SDS011;5100;45.176;5.714;2022-12-18T01:39:23;12.13;;;10.83;;
10120;SDS011;5100;45.176;5.714;2022-12-18T01:41:49;12.47;;;11.17;;
10120;SDS011;5100;45.176;5.714;2022-12-18T01:47:15;11.60;;;10.50;;
10120;SDS011;5100;45.176;5.714;2022-12-18T01:49:45;13.07;;;11.10;;
10120;SDS011;5100;45.176;5.714;2022-12-18T01:52:11;14.83;;;10.27;;
10120;SDS011;5100;45.176;5.714;2022-12-18T01:54:38;10.67;;;9.53;;
10120;SDS011;5100;45.176;5.714;2022-12-18T01:57:05;11.63;;;10.43;;
10120;SDS011;5100;45.176;5.714;2022-12-18T01:59:32;10.57;;;9.47;;
10120;SDS011;5100;45.176;5.714;2022-12-18T02:02:01;11.47;;;9.20;;
10120;SDS011;5100;45.176;5.714;2022-12-18T02:04:29;11.80;;;10.13;;
10120;SDS011;5100;45.176;5.714;2022-12-18T02:09:48;10.60;;;9.53;;
10120;SDS011;5100;45.176;5.714;2022-12-18T02:12:19;10.80;;;9.70;;
10120;SDS011;5100;45.176;5.714;2022-12-18T02:17:52;10.63;;;9.50;;
10120;SDS011;5100;45.176;5.714;2022-12-18T02:20:45;11.33;;;10.17;;
10120;SDS011;5100;45.176;5.714;2022-12-18T02:26:28;10.67;;;9.63;;
10120;SDS011;5100;45.176;5.714;2022-12-18T02:29:04;10.73;;;9.43;;
10120;SDS011;5100;45.176;5.714;2022-12-18T02:31:37;11.03;;;9.93;;
10120;SDS011;5100;45.176;5.714;2022-12-18T02:34:09;11.67;;;9.87;;
10120;SDS011;5100;45.176;5.714;2022-12-18T02:36:38;10.43;;;9.03;;
10120;SDS011;5100;45.176;5.714;2022-12-18T02:39:09;10.33;;;9.20;;
10120;SDS011;5100;45.176;5.714;2022-12-18T02:41:39;10.60;;;9.50;;
10120;SDS011;5100;45.176;5.714;2022-12-18T02:44:08;10.00;;;9.03;;
10120;SDS011;5100;45.176;5.714;2022-12-18T02:46:36;10.30;;;9.03;;
10120;SDS011;5100;45.176;5.714;2022-12-18T02:51:56;8.80;;;7.90;;
10120;SDS011;5100;45.176;5.714;2022-12-18T02:57:13;9.37;;;8.20;;
10120;SDS011;5100;45.176;5.714;2022-12-18T02:59:48;8.13;;;7.33;;
10120;SDS011;5100;45.176;5.714;2022-12-18T03:02:39;8.70;;;7.80;;
10120;SDS011;5100;45.176;5.714;2022-12-18T03:07:44;9.93;;;8.43;;
10120;SDS011;5100;45.176;5.714;2022-12-18T03:10:18;9.07;;;8.17;;
10120;SDS011;5100;45.176;5.714;2022-12-18T03:15:54;7.83;;;7.10;;
10120;SDS011;5100;45.176;5.714;2022-12-18T03:18:24;9.20;;;7.90;;
10120;SDS011;5100;45.176;5.714;2022-12-18T03:21:05;7.83;;;7.07;;
10120;SDS011;5100;45.176;5.714;2022-12-18T03:23:35;8.30;;;7.50;;
10120;SDS011;5100;45.176;5.714;2022-12-18T03:26:12;7.57;;;6.80;;
10120;SDS011;5100;45.176;5.714;2022-12-18T03:28:44;8.83;;;7.93;;
10120;SDS011;5100;45.176;5.714;2022-12-18T03:31:17;7.60;;;6.80;;
10120;SDS011;5100;45.176;5.714;2022-12-18T03:33:50;7.80;;;6.80;;
10120;SDS011;5100;45.176;5.714;2022-12-18T03:36:22;8.30;;;7.40;;
10120;SDS011;5100;45.176;5.714;2022-12-18T03:38:49;7.53;;;6.63;;
10120;SDS011;5100;45.176;5.714;2022-12-18T03:41:33;7.33;;;6.60;;
10120;SDS011;5100;45.176;5.714;2022-12-18T03:44:13;7.53;;;6.83;;
10120;SDS011;5100;45.176;5.714;2022-12-18T03:47:30;7.60;;;6.80;;
10120;SDS011;5100;45.176;5.714;2022-12-18T03:52:20;7.37;;;6.60;;
10120;SDS011;5100;45.176;5.714;2022-12-18T03:55:15;8.87;;;7.80;;
10120;SDS011;5100;45.176;5.714;2022-12-18T03:57:44;9.17;;;7.67;;
10120;SDS011;5100;45.176;5.714;2022-12-18T04:00:14;8.47;;;7.67;;
10120;SDS011;5100;45.176;5.714;2022-12-18T04:02:51;10.07;;;7.40;;
10120;SDS011;5100;45.176;5.714;2022-12-18T04:05:20;8.07;;;7.27;;
10120;SDS011;5100;45.176;5.714;2022-12-18T04:07:49;7.83;;;7.03;;
10120;SDS011;5100;45.176;5.714;2022-12-18T04:10:17;8.77;;;7.37;;
10120;SDS011;5100;45.176;5.714;2022-12-18T04:12:44;8.67;;;7.03;;
10120;SDS011;5100;45.176;5.714;2022-12-18T04:15:11;7.77;;;6.83;;
10120;SDS011;5100;45.176;5.714;2022-12-18T04:17:39;6.90;;;6.20;;
10120;SDS011;5100;45.176;5.714;2022-12-18T04:20:13;7.13;;;6.43;;
10120;SDS011;5100;45.176;5.714;2022-12-18T04:22:41;7.43;;;6.73;;
10120;SDS011;5100;45.176;5.714;2022-12-18T04:25:07;7.50;;;6.80;;
10120;SDS011;5100;45.176;5.714;2022-12-18T04:27:35;6.97;;;6.37;;
10120;SDS011;5100;45.176;5.714;2022-12-18T04:30:03;7.80;;;7.10;;
10120;SDS011;5100;45.176;5.714;2022-12-18T04:32:30;8.53;;;7.20;;
10120;SDS011;5100;45.176;5.714;2022-12-18T04:34:56;8.00;;;7.20;;
10120;SDS011;5100;45.176;5.714;2022-12-18T04:37:22;7.43;;;6.73;;
10120;SDS011;5100;45.176;5.714;2022-12-18T04:39:49;8.00;;;7.07;;
10120;SDS011;5100;45.176;5.714;2022-12-18T04:42:17;7.80;;;7.00;;
10120;SDS011;5100;45.176;5.714;2022-12-18T04:44:43;7.33;;;6.63;;
10120;SDS011;5100;45.176;5.714;2022-12-18T04:47:10;8.77;;;7.87;;
10120;SDS011;5100;45.176;5.714;2022-12-18T04:49:36;6.67;;;6.07;;
10120;SDS011;5100;45.176;5.714;2022-12-18T04:52:02;7.77;;;6.97;;
10120;SDS011;5100;45.176;5.714;2022-12-18T04:54:28;8.97;;;7.33;;
10120;SDS011;5100;45.176;5.714;2022-12-18T04:56:54;10.17;;;7.63;;
10120;SDS011;5100;45.176;5.714;2022-12-18T04:59:20;8.50;;;7.70;;
10120;SDS011;5100;45.176;5.714;2022-12-18T05:01:46;10.20;;;8.43;;
10120;SDS011;5100;45.176;5.714;2022-12-18T05:04:12;10.03;;;8.93;;
10120;SDS011;5100;45.176;5.714;2022-12-18T05:06:38;9.37;;;8.47;;
10120;SDS011;5100;45.176;5.714;2022-12-18T05:09:04;8.53;;;7.23;;
10120;SDS011;5100;45.176;5.714;2022-12-18T05:11:30;10.60;;;8.83;;
10120;SDS011;5100;45.176;5.714;2022-12-18T05:13:56;9.17;;;8.23;;
10120;SDS011;5100;45.176;5.714;2022-12-18T05:16:22;8.87;;;7.97;;
10120;SDS011;5100;45.176;5.714;2022-12-18T05:18:49;7.93;;;7.17;;
10120;SDS011;5100;45.176;5.714;2022-12-18T05:21:15;7.90;;;7.17;;
10120;SDS011;5100;45.176;5.714;2022-12-18T05:23:41;8.00;;;7.20;;
10120;SDS011;5100;45.176;5.714;2022-12-18T05:26:14;8.40;;;7.43;;
10120;SDS011;5100;45.176;5.714;2022-12-18T05:28:44;9.50;;;7.67;;
10120;SDS011;5100;45.176;5.714;2022-12-18T05:31:11;8.50;;;7.37;;
10120;SDS011;5100;45.176;5.714;2022-12-18T05:33:38;8.47;;;7.67;;
10120;SDS011;5100;45.176;5.714;2022-12-18T05:36:05;7.90;;;7.10;;
10120;SDS011;5100;45.176;5.714;2022-12-18T05:38:34;8.47;;;7.30;;
10120;SDS011;5100;45.176;5.714;2022-12-18T05:41:01;8.77;;;7.13;;
10120;SDS011;5100;45.176;5.714;2022-12-18T05:43:27;7.70;;;7.00;;
10120;SDS011;5100;45.176;5.714;2022-12-18T05:45:54;8.53;;;7.63;;
10120;SDS011;5100;45.176;5.714;2022-12-18T05:48:21;8.03;;;7.23;;
10120;SDS011;5100;45.176;5.714;2022-12-18T05:50:47;8.60;;;7.73;;
10120;SDS011;5100;45.176;5.714;2022-12-18T05:53:16;9.13;;;7.67;;
10120;SDS011;5100;45.176;5.714;2022-12-18T05:55:44;9.97;;;8.40;;
10120;SDS011;5100;45.176;5.714;2022-12-18T05:58:11;8.63;;;7.67;;
10120;SDS011;5100;45.176;5.714;2022-12-18T06:00:39;8.53;;;7.60;;
10120;SDS011;5100;45.176;5.714;2022-12-18T06:03:10;8.07;;;7.27;;
10120;SDS011;5100;45.176;5.714;2022-12-18T06:05:41;8.53;;;7.73;;
10120;SDS011;5100;45.176;5.714;2022-12-18T06:08:09;8.00;;;7.00;;
10120;SDS011;5100;45.176;5.714;2022-12-18T06:10:36;8.77;;;7.87;;
10120;SDS011;5100;45.176;5.714;2022-12-18T06:13:02;8.30;;;7.50;;
10120;SDS011;5100;45.176;5.714;2022-12-18T06:15:28;8.37;;;7.47;;
10120;SDS011;5100;45.176;5.714;2022-12-18T06:17:55;8.80;;;7.90;;
10120;SDS011;5100;45.176;5.714;2022-12-18T06:20:21;8.23;;;7.43;;
10120;SDS011;5100;45.176;5.714;2022-12-18T06:22:47;8.37;;;7.47;;
10120;SDS011;5100;45.176;5.714;2022-12-18T06:25:14;8.03;;;7.23;;
10120;SDS011;5100;45.176;5.714;2022-12-18T06:27:40;7.93;;;7.13;;
10120;SDS011;5100;45.176;5.714;2022-12-18T06:30:06;9.03;;;7.30;;
10120;SDS011;5100;45.176;5.714;2022-12-18T06:32:33;8.43;;;7.23;;
10120;SDS011;5100;45.176;5.714;2022-12-18T06:35:00;8.17;;;7.30;;
10120;SDS011;5100;45.176;5.714;2022-12-18T06:37:26;8.13;;;7.10;;
10120;SDS011;5100;45.176;5.714;2022-12-18T06:39:53;9.60;;;7.30;;
10120;SDS011;5100;45.176;5.714;2022-12-18T06:42:19;8.80;;;7.90;;
10120;SDS011;5100;45.176;5.714;2022-12-18T06:44:48;8.30;;;7.03;;
10120;SDS011;5100;45.176;5.714;2022-12-18T06:47:14;7.67;;;6.87;;
10120;SDS011;5100;45.176;5.714;2022-12-18T06:49:40;7.17;;;6.47;;
10120;SDS011;5100;45.176;5.714;2022-12-18T06:52:06;8.23;;;7.07;;
10120;SDS011;5100;45.176;5.714;2022-12-18T06:54:33;7.30;;;6.60;;
10120;SDS011;5100;45.176;5.714;2022-12-18T06:56:59;7.77;;;6.97;;
10120;SDS011;5100;45.176;5.714;2022-12-18T06:59:25;7.73;;;6.80;;
10120;SDS011;5100;45.176;5.714;2022-12-18T07:01:51;7.03;;;6.33;;
10120;SDS011;5100;45.176;5.714;2022-12-18T07:04:17;7.87;;;7.07;;
10120;SDS011;5100;45.176;5.714;2022-12-18T07:06:43;7.67;;;6.87;;
10120;SDS011;5100;45.176;5.714;2022-12-18T07:09:10;8.13;;;7.33;;
10120;SDS011;5100;45.176;5.714;2022-12-18T07:11:36;7.30;;;6.60;;
10120;SDS011;5100;45.176;5.714;2022-12-18T07:14:02;7.40;;;6.70;;
10120;SDS011;5100;45.176;5.714;2022-12-18T07:16:28;7.77;;;6.93;;
10120;SDS011;5100;45.176;5.714;2022-12-18T07:18:55;7.33;;;6.63;;
10120;SDS011;5100;45.176;5.714;2022-12-18T07:21:22;8.70;;;7.07;;
10120;SDS011;5100;45.176;5.714;2022-12-18T07:23:49;7.03;;;6.33;;
10120;SDS011;5100;45.176;5.714;2022-12-18T07:26:15;7.97;;;6.93;;
10120;SDS011;5100;45.176;5.714;2022-12-18T07:28:43;8.60;;;6.50;;
10120;SDS011;5100;45.176;5.714;2022-12-18T07:31:10;8.23;;;6.90;;
10120;SDS011;5100;45.176;5.714;2022-12-18T07:33:38;8.50;;;7.13;;
10120;SDS011;5100;45.176;5.714;2022-12-18T07:36:05;8.33;;;7.23;;
10120;SDS011;5100;45.176;5.714;2022-12-18T07:38:33;8.60;;;7.70;;
10120;SDS011;5100;45.176;5.714;2022-12-18T07:41:03;8.10;;;6.93;;
10120;SDS011;5100;45.176;5.714;2022-12-18T07:43:32;8.00;;;7.17;;
10120;SDS011;5100;45.176;5.714;2022-12-18T07:45:58;7.87;;;7.07;;
10120;SDS011;5100;45.176;5.714;2022-12-18T07:48:25;8.17;;;7.30;;
10120;SDS011;5100;45.176;5.714;2022-12-18T07:50:52;8.10;;;7.30;;
10120;SDS011;5100;45.176;5.714;2022-12-18T07:53:18;7.93;;;7.13;;
10120;SDS011;5100;45.176;5.714;2022-12-18T07:55:43;8.97;;;7.83;;
10120;SDS011;5100;45.176;5.714;2022-12-18T07:58:10;8.37;;;7.57;;
10120;SDS011;5100;45.176;5.714;2022-12-18T08:00:36;8.70;;;7.80;;
10120;SDS011;5100;45.176;5.714;2022-12-18T08:03:02;10.30;;;7.47;;
10120;SDS011;5100;45.176;5.714;2022-12-18T08:05:28;9.27;;;7.67;;
10120;SDS011;5100;45.176;5.714;2022-12-18T08:07:54;8.53;;;7.63;;
10120;SDS011;5100;45.176;5.714;2022-12-18T08:10:21;9.53;;;8.53;;
10120;SDS011;5100;45.176;5.714;2022-12-18T08:12:51;9.03;;;7.87;;
10120;SDS011;5100;45.176;5.714;2022-12-18T08:15:17;10.13;;;8.37;;
10120;SDS011;5100;45.176;5.714;2022-12-18T08:17:43;10.70;;;8.17;;
10120;SDS011;5100;45.176;5.714;2022-12-18T08:20:09;8.57;;;7.63;;
10120;SDS011;5100;45.176;5.714;2022-12-18T08:22:36;8.43;;;7.63;;
10120;SDS011;5100;45.176;5.714;2022-12-18T08:25:03;8.57;;;7.40;;
10120;SDS011;5100;45.176;5.714;2022-12-18T08:27:29;9.23;;;7.63;;
10120;SDS011;5100;45.176;5.714;2022-12-18T08:29:56;8.03;;;7.23;;
10120;SDS011;5100;45.176;5.714;2022-12-18T08:32:23;8.67;;;7.60;;
10120;SDS011;5100;45.176;5.714;2022-12-18T08:34:50;9.10;;;7.80;;
10120;SDS011;5100;45.176;5.714;2022-12-18T08:37:16;9.10;;;8.13;;
10120;SDS011;5100;45.176;5.714;2022-12-18T08:39:42;11.37;;;8.23;;
10120;SDS011;5100;45.176;5.714;2022-12-18T08:42:09;9.23;;;8.03;;
10120;SDS011;5100;45.176;5.714;2022-12-18T08:44:54;9.23;;;7.83;;
10120;SDS011;5100;45.176;5.714;2022-12-18T08:47:20;9.80;;;8.40;;
10120;SDS011;5100;45.176;5.714;2022-12-18T08:49:46;8.80;;;7.90;;
10120;SDS011;5100;45.176;5.714;2022-12-18T08:52:12;8.33;;;7.53;;
10120;SDS011;5100;45.176;5.714;2022-12-18T08:54:38;8.37;;;7.30;;
10120;SDS011;5100;45.176;5.714;2022-12-18T08:57:04;8.93;;;8.03;;
10120;SDS011;5100;45.176;5.714;2022-12-18T08:59:30;10.67;;;8.77;;
10120;SDS011;5100;45.176;5.714;2022-12-18T09:01:56;8.90;;;8.00;;
10120;SDS011;5100;45.176;5.714;2022-12-18T09:04:23;9.83;;;8.83;;
10120;SDS011;5100;45.176;5.714;2022-12-18T09:06:49;10.63;;;9.63;;
10120;SDS011;5100;45.176;5.714;2022-12-18T09:09:15;10.47;;;8.83;;
10120;SDS011;5100;45.176;5.714;2022-12-18T09:11:41;10.07;;;9.00;;
10120;SDS011;5100;45.176;5.714;2022-12-18T09:14:08;10.07;;;8.47;;
10120;SDS011;5100;45.176;5.714;2022-12-18T09:16:35;9.73;;;8.73;;
10120;SDS011;5100;45.176;5.714;2022-12-18T09:19:02;9.80;;;8.80;;
10120;SDS011;5100;45.176;5.714;2022-12-18T09:21:33;10.43;;;9.33;;
10120;SDS011;5100;45.176;5.714;2022-12-18T09:24:08;11.73;;;9.43;;
10120;SDS011;5100;45.176;5.714;2022-12-18T09:26:40;11.73;;;9.97;;
10120;SDS011;5100;45.176;5.714;2022-12-18T09:29:06;11.03;;;9.90;;
10120;SDS011;5100;45.176;5.714;2022-12-18T09:31:32;11.10;;;9.70;;
10120;SDS011;5100;45.176;5.714;2022-12-18T09:33:59;9.47;;;8.57;;
10120;SDS011;5100;45.176;5.714;2022-12-18T09:36:25;9.70;;;8.70;;
10120;SDS011;5100;45.176;5.714;2022-12-18T09:38:51;9.77;;;8.77;;
10120;SDS011;5100;45.176;5.714;2022-12-18T09:47:02;9.67;;;8.67;;
10120;SDS011;5100;45.176;5.714;2022-12-18T09:49:34;9.93;;;8.93;;
10120;SDS011;5100;45.176;5.714;2022-12-18T09:54:38;11.53;;;9.50;;
10120;SDS011;5100;45.176;5.714;2022-12-18T09:57:09;10.47;;;9.37;;
10120;SDS011;5100;45.176;5.714;2022-12-18T09:59:40;11.03;;;9.53;;
10120;SDS011;5100;45.176;5.714;2022-12-18T10:02:13;9.23;;;8.27;;
10120;SDS011;5100;45.176;5.714;2022-12-18T10:07:50;10.40;;;9.13;;
10120;SDS011;5100;45.176;5.714;2022-12-18T10:13:15;9.70;;;8.40;;
10120;SDS011;5100;45.176;5.714;2022-12-18T10:19:07;9.93;;;8.93;;
10120;SDS011;5100;45.176;5.714;2022-12-18T10:27:14;9.33;;;8.43;;
10120;SDS011;5100;45.176;5.714;2022-12-18T10:29:42;8.93;;;8.03;;
10120;SDS011;5100;45.176;5.714;2022-12-18T10:32:15;9.60;;;8.60;;
10120;SDS011;5100;45.176;5.714;2022-12-18T10:34:50;10.13;;;9.03;;
10120;SDS011;5100;45.176;5.714;2022-12-18T10:37:19;10.27;;;9.10;;
10120;SDS011;5100;45.176;5.714;2022-12-18T10:40:04;10.67;;;9.57;;
10120;SDS011;5100;45.176;5.714;2022-12-18T10:42:33;11.50;;;10.10;;
10120;SDS011;5100;45.176;5.714;2022-12-18T10:45:09;10.03;;;9.00;;
10120;SDS011;5100;45.176;5.714;2022-12-18T10:47:45;9.77;;;8.60;;
10120;SDS011;5100;45.176;5.714;2022-12-18T10:50:22;8.70;;;7.63;;
10120;SDS011;5100;45.176;5.714;2022-12-18T10:52:54;9.13;;;7.87;;
10120;SDS011;5100;45.176;5.714;2022-12-18T10:55:31;8.90;;;8.00;;
10120;SDS011;5100;45.176;5.714;2022-12-18T10:58:20;9.73;;;8.23;;
10120;SDS011;5100;45.176;5.714;2022-12-18T11:01:01;9.97;;;8.33;;
10120;SDS011;5100;45.176;5.714;2022-12-18T11:03:31;9.23;;;7.30;;
10120;SDS011;5100;45.176;5.714;2022-12-18T11:06:24;8.57;;;7.67;;
10120;SDS011;5100;45.176;5.714;2022-12-18T11:08:58;8.20;;;7.40;;
10120;SDS011;5100;45.176;5.714;2022-12-18T11:11:35;8.77;;;7.50;;
10120;SDS011;5100;45.176;5.714;2022-12-18T11:16:32;9.97;;;8.97;;
10120;SDS011;5100;45.176;5.714;2022-12-18T11:19:41;10.83;;;9.73;;
10120;SDS011;5100;45.176;5.714;2022-12-18T11:22:01;9.70;;;8.70;;
10120;SDS011;5100;45.176;5.714;2022-12-18T11:25:05;10.47;;;8.70;;
10120;SDS011;5100;45.176;5.714;2022-12-18T11:27:55;9.17;;;8.27;;
10120;SDS011;5100;45.176;5.714;2022-12-18T11:30:27;8.60;;;7.70;;
10120;SDS011;5100;45.176;5.714;2022-12-18T11:33:00;8.50;;;7.70;;
10120;SDS011;5100;45.176;5.714;2022-12-18T11:38:14;8.37;;;7.53;;
10120;SDS011;5100;45.176;5.714;2022-12-18T11:46:23;8.20;;;7.40;;
10120;SDS011;5100;45.176;5.714;2022-12-18T11:49:01;7.60;;;6.67;;
10120;SDS011;5100;45.176;5.714;2022-12-18T11:54:17;7.97;;;7.03;;
10120;SDS011;5100;45.176;5.714;2022-12-18T11:56:48;8.13;;;6.53;;
10120;SDS011;5100;45.176;5.714;2022-12-18T11:59:36;7.87;;;7.07;;
10120;SDS011;5100;45.176;5.714;2022-12-18T12:02:43;9.43;;;8.47;;
10120;SDS011;5100;45.176;5.714;2022-12-18T12:07:47;9.27;;;8.37;;
10120;SDS011;5100;45.176;5.714;2022-12-18T12:10:42;9.23;;;8.27;;
10120;SDS011;5100;45.176;5.714;2022-12-18T12:13:23;15.53;;;8.50;;
10120;SDS011;5100;45.176;5.714;2022-12-18T12:16:16;10.57;;;8.80;;
10120;SDS011;5100;45.176;5.714;2022-12-18T12:26:51;7.30;;;6.60;;
10120;SDS011;5100;45.176;5.714;2022-12-18T12:32:14;8.13;;;6.97;;
10120;SDS011;5100;45.176;5.714;2022-12-18T12:40:30;9.30;;;8.40;;
10120;SDS011;5100;45.176;5.714;2022-12-18T12:43:07;8.97;;;8.03;;
10120;SDS011;5100;45.176;5.714;2022-12-18T12:46:06;8.37;;;7.50;;
10120;SDS011;5100;45.176;5.714;2022-12-18T12:51:09;6.67;;;5.97;;
10120;SDS011;5100;45.176;5.714;2022-12-18T12:53:48;7.50;;;6.30;;
10120;SDS011;5100;45.176;5.714;2022-12-18T12:56:16;7.73;;;6.93;;
10120;SDS011;5100;45.176;5.714;2022-12-18T13:07:00;6.97;;;6.27;;
10120;SDS011;5100;45.176;5.714;2022-12-18T13:09:30;7.60;;;6.23;;
10120;SDS011;5100;45.176;5.714;2022-12-18T13:12:01;6.30;;;5.70;;
10120;SDS011;5100;45.176;5.714;2022-12-18T13:14:49;6.53;;;5.57;;
10120;SDS011;5100;45.176;5.714;2022-12-18T13:22:54;6.97;;;5.90;;
10120;SDS011;5100;45.176;5.714;2022-12-18T13:25:31;6.53;;;5.83;;
10120;SDS011;5100;45.176;5.714;2022-12-18T13:35:41;7.43;;;5.87;;
10120;SDS011;5100;45.176;5.714;2022-12-18T13:38:23;5.90;;;5.30;;
10120;SDS011;5100;45.176;5.714;2022-12-18T13:41:04;7.03;;;6.07;;
10120;SDS011;5100;45.176;5.714;2022-12-18T13:43:52;7.13;;;6.43;;
10120;SDS011;5100;45.176;5.714;2022-12-18T13:46:29;7.67;;;6.87;;
10120;SDS011;5100;45.176;5.714;2022-12-18T13:51:43;9.77;;;6.00;;
10120;SDS011;5100;45.176;5.714;2022-12-18T13:54:19;7.03;;;6.13;;
10120;SDS011;5100;45.176;5.714;2022-12-18T13:56:49;8.07;;;7.27;;
10120;SDS011;5100;45.176;5.714;2022-12-18T13:59:20;7.53;;;6.50;;
10120;SDS011;5100;45.176;5.714;2022-12-18T14:01:55;8.10;;;6.03;;
10120;SDS011;5100;45.176;5.714;2022-12-18T14:04:34;6.53;;;5.80;;
10120;SDS011;5100;45.176;5.714;2022-12-18T14:09:30;5.80;;;5.17;;
10120;SDS011;5100;45.176;5.714;2022-12-18T14:12:00;6.20;;;5.37;;
10120;SDS011;5100;45.176;5.714;2022-12-18T14:14:46;7.30;;;5.63;;
10120;SDS011;5100;45.176;5.714;2022-12-18T14:17:14;7.17;;;5.90;;
10120;SDS011;5100;45.176;5.714;2022-12-18T14:19:42;6.40;;;5.67;;
10120;SDS011;5100;45.176;5.714;2022-12-18T14:22:25;5.80;;;5.20;;
10120;SDS011;5100;45.176;5.714;2022-12-18T14:25:06;5.80;;;5.20;;
10120;SDS011;5100;45.176;5.714;2022-12-18T14:27:37;7.20;;;5.70;;
10120;SDS011;5100;45.176;5.714;2022-12-18T14:33:11;5.50;;;4.90;;
10120;SDS011;5100;45.176;5.714;2022-12-18T14:35:38;10.10;;;8.80;;
10120;SDS011;5100;45.176;5.714;2022-12-18T14:38:17;7.90;;;6.43;;
10120;SDS011;5100;45.176;5.714;2022-12-18T14:40:51;11.10;;;8.33;;
10120;SDS011;5100;45.176;5.714;2022-12-18T14:43:24;5.13;;;4.63;;
10120;SDS011;5100;45.176;5.714;2022-12-18T14:45:51;4.80;;;4.30;;
10120;SDS011;5100;45.176;5.714;2022-12-18T14:50:44;4.10;;;3.70;;
10120;SDS011;5100;45.176;5.714;2022-12-18T14:53:22;5.40;;;4.90;;
10120;SDS011;5100;45.176;5.714;2022-12-18T14:55:58;5.47;;;4.97;;
10120;SDS011;5100;45.176;5.714;2022-12-18T14:58:24;5.70;;;5.17;;
10120;SDS011;5100;45.176;5.714;2022-12-18T15:00:50;6.00;;;5.40;;
10120;SDS011;5100;45.176;5.714;2022-12-18T15:03:20;5.90;;;5.30;;
10120;SDS011;5100;45.176;5.714;2022-12-18T15:05:47;7.53;;;5.60;;
10120;SDS011;5100;45.176;5.714;2022-12-18T15:08:24;6.60;;;6.00;;
10120;SDS011;5100;45.176;5.714;2022-12-18T15:10:59;7.27;;;6.53;;
10120;SDS011;5100;45.176;5.714;2022-12-18T15:13:25;6.63;;;5.77;;
10120;SDS011;5100;45.176;5.714;2022-12-18T15:15:52;7.43;;;6.63;;
10120;SDS011;5100;45.176;5.714;2022-12-18T15:18:21;7.10;;;6.40;;
10120;SDS011;5100;45.176;5.714;2022-12-18T15:21:07;7.30;;;6.60;;
10120;SDS011;5100;45.176;5.714;2022-12-18T15:23:49;7.57;;;6.83;;
10120;SDS011;5100;45.176;5.714;2022-12-18T15:26:17;8.13;;;7.33;;
10120;SDS011;5100;45.176;5.714;2022-12-18T15:28:50;8.67;;;7.03;;
10120;SDS011;5100;45.176;5.714;2022-12-18T15:36:18;8.33;;;6.67;;
10120;SDS011;5100;45.176;5.714;2022-12-18T15:38:46;7.60;;;6.77;;
10120;SDS011;5100;45.176;5.714;2022-12-18T15:41:14;8.13;;;7.27;;
10120;SDS011;5100;45.176;5.714;2022-12-18T15:43:41;8.30;;;6.77;;
10120;SDS011;5100;45.176;5.714;2022-12-18T15:46:13;7.40;;;6.57;;
10120;SDS011;5100;45.176;5.714;2022-12-18T15:48:45;8.57;;;6.87;;
10120;SDS011;5100;45.176;5.714;2022-12-18T15:51:34;8.20;;;6.93;;
10120;SDS011;5100;45.176;5.714;2022-12-18T15:54:03;7.10;;;6.37;;
10120;SDS011;5100;45.176;5.714;2022-12-18T15:56:34;7.43;;;6.73;;
10120;SDS011;5100;45.176;5.714;2022-12-18T15:59:19;8.97;;;7.67;;
10120;SDS011;5100;45.176;5.714;2022-12-18T16:01:46;10.60;;;8.20;;
10120;SDS011;5100;45.176;5.714;2022-12-18T16:04:16;9.23;;;8.07;;
10120;SDS011;5100;45.176;5.714;2022-12-18T16:06:45;7.67;;;6.90;;
10120;SDS011;5100;45.176;5.714;2022-12-18T16:09:12;9.83;;;8.83;;
10120;SDS011;5100;45.176;5.714;2022-12-18T16:11:39;8.30;;;6.83;;
10120;SDS011;5100;45.176;5.714;2022-12-18T16:14:16;7.83;;;7.03;;
10120;SDS011;5100;45.176;5.714;2022-12-18T16:16:49;8.60;;;6.87;;
10120;SDS011;5100;45.176;5.714;2022-12-18T16:19:16;8.10;;;7.30;;
10120;SDS011;5100;45.176;5.714;2022-12-18T16:21:43;9.07;;;8.17;;
10120;SDS011;5100;45.176;5.714;2022-12-18T16:24:21;7.63;;;6.83;;
10120;SDS011;5100;45.176;5.714;2022-12-18T16:26:49;7.33;;;6.63;;
10120;SDS011;5100;45.176;5.714;2022-12-18T16:29:17;8.13;;;6.70;;
10120;SDS011;5100;45.176;5.714;2022-12-18T16:31:43;9.63;;;7.43;;
10120;SDS011;5100;45.176;5.714;2022-12-18T16:34:31;7.87;;;6.87;;
10120;SDS011;5100;45.176;5.714;2022-12-18T16:37:02;7.93;;;7.13;;
10120;SDS011;5100;45.176;5.714;2022-12-18T16:39:30;9.37;;;6.90;;
10120;SDS011;5100;45.176;5.714;2022-12-18T16:41:57;7.83;;;7.00;;
10120;SDS011;5100;45.176;5.714;2022-12-18T16:44:23;7.13;;;6.43;;
10120;SDS011;5100;45.176;5.714;2022-12-18T16:46:49;8.33;;;7.43;;
10120;SDS011;5100;45.176;5.714;2022-12-18T16:49:16;9.70;;;7.87;;
10120;SDS011;5100;45.176;5.714;2022-12-18T16:51:43;13.10;;;10.00;;
10120;SDS011;5100;45.176;5.714;2022-12-18T16:54:10;12.60;;;9.43;;
10120;SDS011;5100;45.176;5.714;2022-12-18T16:56:37;19.40;;;12.63;;
10120;SDS011;5100;45.176;5.714;2022-12-18T16:59:04;16.40;;;12.90;;
10120;SDS011;5100;45.176;5.714;2022-12-18T17:01:31;18.30;;;12.43;;
10120;SDS011;5100;45.176;5.714;2022-12-18T17:03:58;16.17;;;12.60;;
10120;SDS011;5100;45.176;5.714;2022-12-18T17:06:27;12.73;;;10.40;;
10120;SDS011;5100;45.176;5.714;2022-12-18T17:08:55;16.27;;;11.97;;
10120;SDS011;5100;45.176;5.714;2022-12-18T17:11:29;17.43;;;12.63;;
10120;SDS011;5100;45.176;5.714;2022-12-18T17:13:56;17.03;;;14.00;;
10120;SDS011;5100;45.176;5.714;2022-12-18T17:16:23;19.50;;;14.23;;